createdAt,value
2023-12-11T00:01:19.926Z,40.47
2023-12-11T00:03:49.274Z,39.25
2023-12-11T00:06:18.744Z,35.30
2023-12-11T00:08:48.079Z,35.38
2023-12-11T00:11:17.478Z,36.53
2023-12-11T00:13:48.269Z,34.83
2023-12-11T00:16:18.839Z,33.65
2023-12-11T00:18:50.219Z,34.13
2023-12-11T00:21:19.524Z,40.53
2023-12-11T00:23:48.869Z,35.65
2023-12-11T00:26:19.210Z,38.15
2023-12-11T00:28:49.918Z,30.58
2023-12-11T00:31:19.438Z,34.63
2023-12-11T00:33:48.830Z,31.67
2023-12-11T00:36:18.232Z,33.70
2023-12-11T00:38:49.079Z,31.92
2023-12-11T00:41:18.769Z,31.17
2023-12-11T00:43:50.661Z,39.42
2023-12-11T00:46:25.293Z,35.38
2023-12-11T00:48:54.887Z,43.55
2023-12-11T00:51:24.339Z,34.22
2023-12-11T00:53:53.576Z,36.75
2023-12-11T00:56:22.828Z,35.65
2023-12-11T00:58:53.604Z,33.97
2023-12-11T01:01:23.158Z,36.20
2023-12-11T01:03:52.964Z,30.50
2023-12-11T01:06:22.422Z,33.83
2023-12-11T01:08:51.739Z,29.85
2023-12-11T01:11:21.057Z,29.77
2023-12-11T01:13:50.462Z,34.30
2023-12-11T01:16:22.007Z,35.90
2023-12-11T01:18:51.431Z,29.20
2023-12-11T01:21:20.739Z,33.95
2023-12-11T01:23:50.000Z,29.60
2023-12-11T01:26:19.852Z,33.20
2023-12-11T01:28:49.073Z,27.98
2023-12-11T01:31:18.322Z,30.73
2023-12-11T01:33:49.157Z,29.98
2023-12-11T01:36:18.663Z,31.35
2023-12-11T01:38:48.591Z,32.40
2023-12-11T01:41:18.277Z,35.30
2023-12-11T01:43:55.149Z,31.45
2023-12-11T01:48:57.001Z,28.85
2023-12-11T01:51:27.475Z,30.48
2023-12-11T01:53:57.405Z,26.65
2023-12-11T01:56:27.483Z,26.90
2023-12-11T01:58:57.220Z,26.05
2023-12-11T02:01:28.044Z,29.80
2023-12-11T02:03:58.978Z,27.70
2023-12-11T02:06:28.686Z,24.20
2023-12-11T02:08:58.057Z,28.17
2023-12-11T02:11:27.438Z,25.80
2023-12-11T02:13:56.941Z,28.17
2023-12-11T02:16:26.235Z,31.20
2023-12-11T02:18:55.751Z,25.83
2023-12-11T02:21:26.751Z,28.90
2023-12-11T02:24:07.926Z,30.92
2023-12-11T02:26:38.903Z,29.00
2023-12-11T02:29:08.223Z,30.75
2023-12-11T02:31:37.617Z,24.10
2023-12-11T02:34:06.957Z,23.85
2023-12-11T02:36:36.416Z,28.77
2023-12-11T02:39:05.956Z,28.02
2023-12-11T02:41:35.540Z,28.20
2023-12-11T02:44:06.656Z,29.65
2023-12-11T02:46:35.990Z,29.40
2023-12-11T02:49:05.786Z,31.30
2023-12-11T02:51:35.310Z,30.17
2023-12-11T02:54:04.860Z,23.73
2023-12-11T02:56:34.237Z,29.73
2023-12-11T02:59:03.638Z,28.67
2023-12-11T03:01:34.433Z,26.42
2023-12-11T03:04:03.953Z,33.40
2023-12-11T03:06:33.414Z,29.25
2023-12-11T03:09:04.202Z,35.38
2023-12-11T03:11:33.462Z,30.02
2023-12-11T03:14:02.780Z,24.70
2023-12-11T03:16:34.484Z,30.00
2023-12-11T03:19:03.942Z,28.90
2023-12-11T03:21:33.466Z,28.77
2023-12-11T03:24:02.798Z,29.95
2023-12-11T03:26:32.088Z,27.30
2023-12-11T03:29:01.319Z,36.45
2023-12-11T03:31:30.623Z,24.83
2023-12-11T03:34:01.398Z,22.38
2023-12-11T03:36:30.820Z,27.42
2023-12-11T03:39:00.089Z,26.48
2023-12-11T03:41:29.269Z,33.92
2023-12-11T03:43:58.631Z,33.13
2023-12-11T03:46:27.947Z,25.38
2023-12-11T03:48:57.279Z,33.17
2023-12-11T03:51:28.113Z,29.58
2023-12-11T03:53:57.662Z,41.30
2023-12-11T03:56:26.987Z,35.60
2023-12-11T03:58:56.315Z,27.75
2023-12-11T04:01:25.751Z,29.70
2023-12-11T04:03:55.510Z,30.52
2023-12-11T04:06:24.885Z,31.45
2023-12-11T04:08:55.696Z,28.50
2023-12-11T04:11:24.995Z,34.50
2023-12-11T04:13:54.349Z,27.55
2023-12-11T04:16:23.557Z,22.95
2023-12-11T04:18:53.031Z,29.30
2023-12-11T04:21:23.519Z,34.22
2023-12-11T04:23:56.620Z,24.92
2023-12-11T04:26:27.203Z,24.80
2023-12-11T04:28:56.708Z,29.73
2023-12-11T04:31:25.958Z,28.45
2023-12-11T04:33:55.500Z,33.10
2023-12-11T04:36:24.885Z,24.27
2023-12-11T04:38:55.517Z,28.38
2023-12-11T04:41:24.861Z,24.05
2023-12-11T04:43:54.479Z,24.60
2023-12-11T04:46:23.790Z,27.60
2023-12-11T04:48:53.318Z,23.95
2023-12-11T04:51:22.688Z,25.70
2023-12-11T04:53:52.103Z,24.70
2023-12-11T04:56:25.913Z,28.25
2023-12-11T04:58:55.164Z,27.52
2023-12-11T05:01:27.291Z,29.05
2023-12-11T05:03:56.813Z,27.08
2023-12-11T05:06:26.164Z,31.35
2023-12-11T05:08:55.460Z,35.42
2023-12-11T05:11:26.280Z,30.40
2023-12-11T05:13:55.562Z,29.63
2023-12-11T05:16:27.687Z,30.55
2023-12-11T05:18:57.533Z,34.30
2023-12-11T05:21:27.055Z,43.22
2023-12-11T05:23:57.837Z,42.17
2023-12-11T05:26:28.559Z,34.03
2023-12-11T05:28:57.874Z,41.25
2023-12-11T05:31:30.171Z,37.58
2023-12-11T05:34:00.106Z,32.80
2023-12-11T05:36:29.551Z,24.38
2023-12-11T05:38:58.806Z,26.42
2023-12-11T05:41:29.535Z,25.73
2023-12-11T05:44:00.302Z,30.90
2023-12-11T05:46:29.967Z,30.08
2023-12-11T05:49:01.337Z,27.42
2023-12-11T05:51:31.006Z,33.92
2023-12-11T05:54:00.716Z,25.73
2023-12-11T05:56:31.630Z,29.40
2023-12-11T05:59:00.932Z,34.05
2023-12-11T06:01:31.019Z,27.77
2023-12-11T06:04:02.153Z,26.17
2023-12-11T06:06:32.070Z,27.40
2023-12-11T06:09:01.452Z,26.70
2023-12-11T06:11:32.292Z,35.00
2023-12-11T06:14:01.572Z,26.38
2023-12-11T06:16:30.784Z,27.75
2023-12-11T06:19:00.362Z,24.67
2023-12-11T06:21:30.063Z,20.20
2023-12-11T06:23:59.339Z,28.50
2023-12-11T06:26:35.407Z,25.50
2023-12-11T06:29:05.069Z,23.08
2023-12-11T06:31:34.466Z,24.58
2023-12-11T06:34:04.412Z,24.23
2023-12-11T06:36:33.745Z,30.80
2023-12-11T06:39:04.114Z,26.40
2023-12-11T06:41:37.708Z,27.52
2023-12-11T06:44:07.261Z,22.25
2023-12-11T06:46:38.153Z,31.55
2023-12-11T06:49:07.579Z,30.60
2023-12-11T06:51:38.499Z,30.40
2023-12-11T06:54:08.871Z,33.55
2023-12-11T06:56:42.940Z,32.28
2023-12-11T06:59:12.210Z,34.67
2023-12-11T07:01:43.970Z,34.35
2023-12-11T07:04:13.758Z,34.42
2023-12-11T07:06:43.696Z,36.40
2023-12-11T07:09:13.348Z,32.22
2023-12-11T07:11:43.989Z,35.47
2023-12-11T07:14:13.319Z,33.15
2023-12-11T07:16:42.579Z,32.13
2023-12-11T07:19:11.969Z,34.83
2023-12-11T07:21:44.822Z,30.75
2023-12-11T07:24:14.375Z,32.38
2023-12-11T07:26:45.001Z,27.58
2023-12-11T07:29:14.506Z,32.35
2023-12-11T07:31:45.411Z,33.10
2023-12-11T07:34:14.992Z,35.50
2023-12-11T07:36:45.456Z,33.03
2023-12-11T07:39:15.187Z,27.25
2023-12-11T07:41:45.818Z,28.65
2023-12-11T07:44:15.142Z,36.65
2023-12-11T07:46:44.468Z,25.92
2023-12-11T07:49:15.363Z,26.35
2023-12-11T07:51:45.378Z,31.25
2023-12-11T07:54:15.568Z,24.48
2023-12-11T07:56:48.452Z,29.88
2023-12-11T07:59:17.749Z,27.75
2023-12-11T08:01:47.127Z,32.13
2023-12-11T08:04:16.658Z,24.15
2023-12-11T08:06:46.366Z,26.55
2023-12-11T08:09:16.017Z,31.25
2023-12-11T08:11:46.906Z,24.92
2023-12-11T08:14:16.208Z,24.27
2023-12-11T08:16:45.650Z,25.90
2023-12-11T08:19:14.981Z,24.77
2023-12-11T08:21:44.357Z,25.92
2023-12-11T08:24:13.734Z,20.98
2023-12-11T08:26:43.097Z,27.70
2023-12-11T08:29:14.048Z,22.70
2023-12-11T08:31:44.536Z,25.67
2023-12-11T08:34:13.961Z,25.20
2023-12-11T08:36:43.442Z,22.73
2023-12-11T08:39:13.052Z,20.52
2023-12-11T08:41:42.478Z,21.52
2023-12-11T08:44:13.236Z,22.60
2023-12-11T08:46:42.894Z,20.33
2023-12-11T08:49:12.347Z,23.15
2023-12-11T08:51:43.354Z,24.55
2023-12-11T08:54:12.699Z,19.02
2023-12-11T08:56:41.978Z,18.02
2023-12-11T08:59:11.261Z,14.63
2023-12-11T09:01:42.139Z,17.27
2023-12-11T09:04:11.549Z,18.20
2023-12-11T09:06:41.117Z,17.08
2023-12-11T09:09:10.594Z,15.90
2023-12-11T09:11:39.873Z,17.20
2023-12-11T09:14:12.094Z,10.77
2023-12-11T09:16:42.797Z,13.10
2023-12-11T09:19:12.301Z,10.88
2023-12-11T09:21:42.470Z,14.65
2023-12-11T09:24:12.325Z,11.88
2023-12-11T09:26:41.660Z,11.18
2023-12-11T09:29:11.675Z,15.82
2023-12-11T09:31:42.636Z,14.65
2023-12-11T09:34:12.174Z,14.30
2023-12-11T09:36:43.833Z,11.73
2023-12-11T09:39:14.248Z,11.35
2023-12-11T09:41:46.543Z,15.15
2023-12-11T09:44:15.823Z,9.32
2023-12-11T09:46:54.421Z,11.82
2023-12-11T09:49:27.019Z,16.83
2023-12-11T09:51:59.107Z,10.25
2023-12-11T09:54:28.440Z,13.80
2023-12-11T09:56:58.290Z,13.23
2023-12-11T09:59:29.060Z,11.65
2023-12-11T10:02:00.208Z,11.90
2023-12-11T10:04:31.679Z,11.85
2023-12-11T10:07:01.042Z,12.15
2023-12-11T10:09:31.593Z,13.70
2023-12-11T10:12:04.201Z,11.02
2023-12-11T10:14:34.592Z,12.40
2023-12-11T10:17:19.058Z,12.95
2023-12-11T10:19:48.452Z,14.13
2023-12-11T10:22:29.030Z,12.93
2023-12-11T10:24:58.766Z,15.77
2023-12-11T10:27:28.783Z,10.32
2023-12-11T10:30:17.084Z,12.50
2023-12-11T10:32:47.859Z,11.13
2023-12-11T10:35:26.236Z,10.30
2023-12-11T10:38:02.509Z,11.07
2023-12-11T10:40:42.830Z,12.80
2023-12-11T10:43:12.158Z,10.27
2023-12-11T10:45:42.318Z,11.13
2023-12-11T10:48:13.171Z,10.85
2023-12-11T10:50:43.825Z,10.43
2023-12-11T10:53:13.584Z,9.68
2023-12-11T10:55:45.973Z,8.77
2023-12-11T10:58:15.211Z,12.55
2023-12-11T11:00:48.280Z,15.75
2023-12-11T11:03:23.163Z,10.02
2023-12-11T11:05:54.977Z,10.80
2023-12-11T11:08:32.228Z,12.88
2023-12-11T11:11:10.602Z,9.52
2023-12-11T11:14:02.117Z,9.48
2023-12-11T11:16:54.362Z,11.07
2023-12-11T11:19:26.004Z,9.07
2023-12-11T11:22:31.173Z,15.15
2023-12-11T11:25:33.493Z,11.45
2023-12-11T11:28:03.347Z,10.45
2023-12-11T11:30:53.692Z,10.70
2023-12-11T11:36:00.243Z,8.50
2023-12-11T11:38:58.790Z,10.52
2023-12-11T11:41:30.018Z,13.57
2023-12-11T11:44:02.058Z,13.27
2023-12-11T11:46:50.970Z,10.77
2023-12-11T11:49:34.464Z,9.60
2023-12-11T11:52:09.101Z,12.82
2023-12-11T11:54:40.058Z,10.80
2023-12-11T11:57:09.440Z,11.73
2023-12-11T11:59:45.159Z,12.05
2023-12-11T12:02:14.257Z,10.55
2023-12-11T12:04:43.909Z,11.07
2023-12-11T12:07:14.810Z,10.73
2023-12-11T12:09:44.203Z,15.13
2023-12-11T12:12:17.042Z,11.75
2023-12-11T12:14:46.729Z,13.05
2023-12-11T12:17:15.817Z,11.98
2023-12-11T12:19:45.591Z,16.48
2023-12-11T12:22:19.133Z,14.00
2023-12-11T12:24:50.269Z,13.82
2023-12-11T12:27:24.783Z,15.40
2023-12-11T12:29:55.720Z,12.52
2023-12-11T12:32:25.822Z,18.15
2023-12-11T12:34:56.529Z,12.07
2023-12-11T12:37:28.188Z,14.18
2023-12-11T12:39:59.165Z,14.05
2023-12-11T12:42:32.374Z,16.40
2023-12-11T12:45:01.968Z,15.90
2023-12-11T12:47:33.396Z,17.45
2023-12-11T12:50:08.004Z,14.70
2023-12-11T12:52:38.844Z,16.92
2023-12-11T12:55:08.611Z,21.27
2023-12-11T12:57:38.451Z,19.25
2023-12-11T13:00:11.987Z,18.70
2023-12-11T13:02:41.202Z,16.35
2023-12-11T13:05:12.691Z,20.13
2023-12-11T13:07:43.960Z,26.10
2023-12-11T13:10:15.262Z,24.70
2023-12-11T13:12:44.442Z,18.15
2023-12-11T13:15:14.038Z,23.10
2023-12-11T13:17:43.250Z,22.38
2023-12-11T13:20:13.805Z,97.43
2023-12-11T13:22:44.474Z,70.28
2023-12-11T13:25:13.612Z,54.58
2023-12-11T13:27:47.585Z,21.00
2023-12-11T13:30:18.942Z,18.02
2023-12-11T13:32:48.050Z,21.42
2023-12-11T13:35:17.725Z,20.10
2023-12-11T13:37:48.368Z,17.48
2023-12-11T13:40:19.047Z,18.20
2023-12-11T13:42:48.377Z,20.58
2023-12-11T13:45:17.828Z,14.48
2023-12-11T13:47:46.999Z,17.63
2023-12-11T13:50:16.392Z,13.88
2023-12-11T13:52:45.672Z,17.30
2023-12-11T13:55:16.226Z,16.80
2023-12-11T13:57:45.512Z,20.48
2023-12-11T14:00:16.597Z,17.00
2023-12-11T14:03:00.615Z,17.02
2023-12-11T14:05:34.113Z,15.18
2023-12-11T14:08:05.996Z,15.93
2023-12-11T14:10:36.614Z,18.00
2023-12-11T14:13:06.193Z,20.40
2023-12-11T14:15:35.472Z,13.95
2023-12-11T14:18:05.054Z,23.10
2023-12-11T14:20:34.244Z,24.95
2023-12-11T14:23:03.347Z,18.98
2023-12-11T14:25:32.534Z,18.80
2023-12-11T14:28:05.922Z,18.00
2023-12-11T14:30:37.016Z,18.77
2023-12-11T14:33:07.094Z,21.30
2023-12-11T14:35:37.344Z,17.85
2023-12-11T14:38:06.629Z,21.95
2023-12-11T14:40:38.726Z,24.98
2023-12-11T14:43:09.993Z,22.27
2023-12-11T14:45:39.871Z,27.02
2023-12-11T14:48:09.181Z,25.42
2023-12-11T14:50:38.307Z,23.05
2023-12-11T14:53:07.371Z,20.23
2023-12-11T14:55:43.651Z,20.45
2023-12-11T14:58:15.958Z,18.35
2023-12-11T15:00:45.224Z,15.70
2023-12-11T15:03:14.428Z,18.70
2023-12-11T15:05:43.758Z,14.25
2023-12-11T15:08:14.014Z,17.23
2023-12-11T15:10:43.831Z,13.65
2023-12-11T15:13:13.013Z,14.77
2023-12-11T15:15:45.679Z,13.52
2023-12-11T15:18:15.673Z,15.80
2023-12-11T15:20:45.340Z,15.27
2023-12-11T15:23:17.335Z,14.25
2023-12-11T15:25:47.310Z,14.43
2023-12-11T15:28:16.866Z,14.98
2023-12-11T15:30:47.897Z,15.63
2023-12-11T15:33:19.296Z,19.63
2023-12-11T15:35:48.436Z,30.95
2023-12-11T15:38:17.515Z,15.90
2023-12-11T15:40:46.548Z,23.58
2023-12-11T15:43:16.474Z,27.20
2023-12-11T15:45:47.010Z,28.98
2023-12-11T15:48:24.040Z,24.08
2023-12-11T15:50:53.961Z,21.08
2023-12-11T15:53:23.191Z,14.57
2023-12-11T15:55:52.598Z,17.85
2023-12-11T15:58:21.686Z,16.48
2023-12-11T16:00:52.249Z,15.90
2023-12-11T16:03:21.459Z,15.02
2023-12-11T16:05:50.606Z,32.30
2023-12-11T16:08:19.678Z,25.65
2023-12-11T16:10:48.890Z,26.15
2023-12-11T16:13:18.155Z,23.42
2023-12-11T16:15:47.576Z,31.45
2023-12-11T16:18:18.220Z,34.63
2023-12-11T16:20:47.422Z,16.27
2023-12-11T16:23:16.876Z,18.10
2023-12-11T16:25:51.477Z,18.35
2023-12-11T16:28:29.233Z,10.65
2023-12-11T16:30:58.594Z,12.57
2023-12-11T16:33:32.181Z,14.38
2023-12-11T16:36:01.467Z,18.50
2023-12-11T16:38:30.639Z,17.05
2023-12-11T16:41:01.528Z,15.55
2023-12-11T16:43:31.275Z,29.35
2023-12-11T16:46:03.437Z,31.17
2023-12-11T16:48:33.999Z,38.97
2023-12-11T16:51:03.618Z,26.88
2023-12-11T16:53:32.696Z,21.58
2023-12-11T16:56:01.878Z,24.10
2023-12-11T16:58:30.961Z,24.27
2023-12-11T17:01:00.594Z,20.50
2023-12-11T17:03:32.341Z,22.02
2023-12-11T17:06:02.960Z,22.77
2023-12-11T17:08:32.181Z,22.92
2023-12-11T17:11:01.306Z,17.13
2023-12-11T17:13:30.436Z,30.95
2023-12-11T17:15:59.568Z,19.17
2023-12-11T17:18:28.779Z,17.75
2023-12-11T17:20:57.949Z,20.55
2023-12-11T17:23:28.503Z,23.10
2023-12-11T17:26:01.182Z,23.08
2023-12-11T17:28:30.393Z,18.20
2023-12-11T17:30:59.700Z,20.83
2023-12-11T17:33:30.343Z,31.10
2023-12-11T17:35:59.604Z,32.72
2023-12-11T17:38:30.052Z,23.73
2023-12-11T17:41:01.046Z,19.38
2023-12-11T17:43:30.318Z,18.52
2023-12-11T17:45:59.520Z,18.67
2023-12-11T17:48:28.628Z,21.92
2023-12-11T17:50:58.020Z,23.33
2023-12-11T17:53:27.041Z,24.08
2023-12-11T17:55:57.794Z,19.70
2023-12-11T17:58:26.957Z,14.88
2023-12-11T18:00:56.658Z,19.85
2023-12-11T18:03:25.837Z,18.35
2023-12-11T18:05:54.855Z,17.50
2023-12-11T18:08:24.026Z,13.05
2023-12-11T18:10:53.300Z,12.73
2023-12-11T18:13:23.936Z,20.98
2023-12-11T18:15:53.102Z,15.00
2023-12-11T18:18:22.313Z,18.25
2023-12-11T18:20:51.612Z,20.77
2023-12-11T18:23:20.802Z,23.20
2023-12-11T18:25:50.557Z,19.40
2023-12-11T18:28:19.953Z,17.88
2023-12-11T18:30:52.744Z,18.30
2023-12-11T18:33:22.059Z,25.48
2023-12-11T18:35:51.733Z,26.25
2023-12-11T18:38:20.940Z,19.33
2023-12-11T18:40:50.088Z,27.45
2023-12-11T18:43:22.163Z,17.55
2023-12-11T18:45:52.711Z,19.48
2023-12-11T18:48:23.537Z,17.70
2023-12-11T18:50:52.977Z,17.25
2023-12-11T18:53:22.698Z,25.25
2023-12-11T18:56:01.220Z,13.73
2023-12-11T18:58:30.864Z,18.13
2023-12-11T19:01:03.135Z,15.45
2023-12-11T19:03:32.396Z,14.68
2023-12-11T19:06:00.545Z,17.45
2023-12-11T19:08:29.663Z,18.67
2023-12-11T19:11:01.210Z,21.23
2023-12-11T19:13:31.332Z,21.25
2023-12-11T19:16:02.278Z,21.02
2023-12-11T19:18:31.589Z,17.58
2023-12-11T19:21:00.747Z,15.52
2023-12-11T19:23:29.951Z,29.38
2023-12-11T19:25:59.239Z,36.80
2023-12-11T19:28:28.533Z,28.13
2023-12-11T19:30:58.359Z,24.20
2023-12-11T19:33:30.087Z,27.10
2023-12-11T19:35:59.334Z,25.80
2023-12-11T19:38:30.188Z,26.92
2023-12-11T19:40:59.274Z,28.75
2023-12-11T19:43:28.570Z,27.05
2023-12-11T19:45:57.744Z,33.28
2023-12-11T19:48:28.343Z,28.98
2023-12-11T19:50:57.841Z,33.30
2023-12-11T19:53:27.165Z,27.27
2023-12-11T19:56:00.714Z,23.38
2023-12-11T19:58:31.329Z,25.38
2023-12-11T20:01:01.439Z,25.13
2023-12-11T20:03:34.650Z,19.20
2023-12-11T20:06:07.433Z,15.98
2023-12-11T20:08:36.842Z,18.38
2023-12-11T20:11:09.312Z,22.38
2023-12-11T20:13:44.629Z,24.92
2023-12-11T20:16:18.716Z,25.77
2023-12-11T20:18:51.210Z,19.80
2023-12-11T20:21:20.459Z,24.67
2023-12-11T20:23:50.321Z,19.05
2023-12-11T20:26:22.843Z,19.02
2023-12-11T20:28:54.017Z,24.10
2023-12-11T20:31:23.306Z,19.20
2023-12-11T20:33:53.991Z,22.20
2023-12-11T20:36:25.825Z,20.90
2023-12-11T20:38:58.399Z,25.63
2023-12-11T20:41:28.975Z,21.55
2023-12-11T20:43:59.204Z,21.52
2023-12-11T20:46:28.665Z,27.42
2023-12-11T20:49:03.017Z,27.23
2023-12-11T20:51:32.458Z,25.52
2023-12-11T20:54:04.000Z,30.42
2023-12-11T20:56:34.821Z,38.70
2023-12-11T20:59:04.708Z,32.85
2023-12-11T21:01:35.696Z,24.17
2023-12-11T21:04:08.726Z,30.67
2023-12-11T21:06:39.988Z,25.15
2023-12-11T21:09:09.404Z,20.95
2023-12-11T21:11:38.989Z,24.10
2023-12-11T21:14:08.283Z,25.52
2023-12-11T21:16:37.755Z,19.95
2023-12-11T21:19:10.632Z,22.35
2023-12-11T21:21:41.083Z,23.85
2023-12-11T21:24:10.403Z,23.88
2023-12-11T21:26:39.749Z,20.00
2023-12-11T21:29:10.536Z,36.63
2023-12-11T21:31:40.340Z,36.90
2023-12-11T21:34:11.256Z,35.33
2023-12-11T21:36:40.680Z,24.77
2023-12-11T21:39:09.918Z,29.30
2023-12-11T21:41:42.103Z,27.67
2023-12-11T21:44:14.104Z,23.42
2023-12-11T21:46:43.196Z,17.58
2023-12-11T21:49:16.011Z,21.13
2023-12-11T21:51:45.465Z,23.15
2023-12-11T21:54:14.748Z,18.85
2023-12-11T21:56:44.094Z,21.63
2023-12-11T21:59:13.352Z,22.45
2023-12-11T22:01:43.616Z,21.35
2023-12-11T22:04:17.021Z,24.85
2023-12-11T22:06:46.338Z,23.63
2023-12-11T22:09:15.684Z,25.95
2023-12-11T22:11:44.846Z,25.08
2023-12-11T22:14:14.032Z,22.05
2023-12-11T22:16:43.265Z,23.17
2023-12-11T22:19:14.241Z,21.05
2023-12-11T22:21:43.769Z,20.00
2023-12-11T22:24:14.183Z,18.15
2023-12-11T22:26:43.509Z,23.65
2023-12-11T22:29:15.315Z,24.35
2023-12-11T22:31:45.684Z,17.70
2023-12-11T22:34:16.698Z,20.20
2023-12-11T22:36:46.076Z,21.58
2023-12-11T22:39:15.426Z,23.10
2023-12-11T22:41:45.240Z,24.70
2023-12-11T22:44:17.376Z,20.45
2023-12-11T22:46:46.494Z,21.27
2023-12-11T22:49:18.836Z,21.95
2023-12-11T22:51:50.056Z,20.13
2023-12-11T22:54:19.278Z,24.73
2023-12-11T22:56:48.416Z,24.00
2023-12-11T22:59:17.530Z,22.80
2023-12-11T23:01:47.093Z,20.60
2023-12-11T23:04:18.008Z,22.75
2023-12-11T23:06:50.023Z,20.40
2023-12-11T23:09:19.274Z,21.77
2023-12-11T23:11:48.545Z,18.40
2023-12-11T23:14:18.407Z,18.25
2023-12-11T23:16:47.701Z,22.05
2023-12-11T23:19:18.444Z,16.55
2023-12-11T23:21:48.162Z,21.30
2023-12-11T23:24:18.544Z,22.15
2023-12-11T23:26:47.907Z,24.27
2023-12-11T23:29:17.045Z,20.17
2023-12-11T23:31:46.301Z,17.33
2023-12-11T23:34:16.015Z,14.35
2023-12-11T23:36:46.751Z,22.55
2023-12-11T23:39:16.125Z,17.65
2023-12-11T23:41:45.523Z,19.00
2023-12-11T23:44:14.721Z,22.98
2023-12-11T23:46:44.011Z,17.88
2023-12-11T23:49:13.358Z,18.33
2023-12-11T23:51:42.581Z,20.38
2023-12-11T23:54:13.305Z,19.35
2023-12-11T23:56:42.452Z,17.17
2023-12-11T23:59:11.701Z,18.08
